createdAt,value
2019-05-13T00:01:56.340Z,64.8
2019-05-13T00:06:58.058Z,66.2
2019-05-13T00:11:56.990Z,66.8
2019-05-13T00:16:56.530Z,67.3
2019-05-13T00:21:55.967Z,67.9
2019-05-13T00:26:55.558Z,69.5
2019-05-13T00:31:55.197Z,69.6
2019-05-13T00:37:11.547Z,68.3
2019-05-13T00:42:08.838Z,68.9
2019-05-13T00:47:07.921Z,70.3
2019-05-13T00:52:07.131Z,71.7
2019-05-13T00:57:06.708Z,72.8
2019-05-13T01:02:06.008Z,73.4
2019-05-13T01:07:05.535Z,74
2019-05-13T01:12:05.465Z,74.7
2019-05-13T01:17:04.956Z,75.7
2019-05-13T01:22:04.795Z,74
2019-05-13T01:27:04.559Z,75.6
2019-05-13T01:32:04.919Z,75.6
2019-05-13T01:37:04.687Z,76.6
2019-05-13T01:42:04.039Z,77.6
2019-05-13T01:47:04.869Z,77.9
2019-05-13T01:52:04.394Z,78
2019-05-13T01:57:04.778Z,78.9
2019-05-13T02:02:04.245Z,78.6
2019-05-13T02:07:04.592Z,79.6
2019-05-13T02:12:05.269Z,80.3
2019-05-13T02:17:04.987Z,79
2019-05-13T02:22:04.954Z,80.5
2019-05-13T02:27:04.686Z,79.8
2019-05-13T02:32:04.443Z,80.5
2019-05-13T02:37:04.141Z,79.4
2019-05-13T02:42:04.472Z,79.1
2019-05-13T02:47:04.458Z,78.5
2019-05-13T02:52:04.129Z,81
2019-05-13T02:57:04.447Z,80.3
2019-05-13T03:02:04.582Z,81.1
2019-05-13T03:07:04.014Z,80.8
2019-05-13T03:12:04.747Z,81.8
2019-05-13T03:17:04.119Z,81.6
2019-05-13T03:22:03.823Z,81.7
2019-05-13T03:27:03.069Z,81.6
2019-05-13T03:32:07.718Z,81.2
2019-05-13T03:37:08.474Z,80.6
2019-05-13T03:42:07.680Z,79.3
2019-05-13T03:47:07.467Z,80.6
2019-05-13T03:52:07.385Z,79.4
2019-05-13T03:57:07.306Z,78.8
2019-05-13T04:02:07.395Z,76.6
2019-05-13T04:07:08.276Z,72
2019-05-13T04:12:08.248Z,69.7
2019-05-13T04:17:08.271Z,68.7
2019-05-13T04:22:12.479Z,62
2019-05-13T04:27:13.703Z,58.9
2019-05-13T04:32:13.526Z,64.1
2019-05-13T04:37:13.652Z,66.2
2019-05-13T04:42:12.799Z,68.4
2019-05-13T04:47:13.075Z,69.4
2019-05-13T04:52:13.739Z,72.3
2019-05-13T04:57:12.848Z,71.7
2019-05-13T05:02:13.691Z,71.1
2019-05-13T05:07:13.252Z,71.5
2019-05-13T05:12:13.105Z,70
2019-05-13T05:17:13.120Z,69.6
2019-05-13T05:22:13.712Z,69.1
2019-05-13T05:27:12.879Z,70.5
2019-05-13T05:32:12.917Z,68.7
2019-05-13T05:37:12.756Z,67.3
2019-05-13T05:42:12.701Z,65.2
2019-05-13T05:47:13.318Z,60.6
2019-05-13T05:52:13.522Z,61.5
2019-05-13T05:57:13.364Z,63.7
2019-05-13T06:02:13.030Z,64.9
2019-05-13T06:07:12.375Z,62.1
2019-05-13T06:12:12.410Z,62.6
2019-05-13T06:17:12.667Z,60.6
2019-05-13T06:22:12.633Z,61.1
2019-05-13T06:27:12.185Z,62.4
2019-05-13T06:32:25.231Z,60.7
2019-05-13T06:37:23.857Z,64
2019-05-13T06:42:24.287Z,61.4
2019-05-13T06:47:23.522Z,63.2
2019-05-13T13:11:54.875Z,59.8
2019-05-13T13:16:54.649Z,61.4
2019-05-13T13:22:07.546Z,59.4
2019-05-13T13:27:22.789Z,60.2
2019-05-13T13:32:24.965Z,58.8
2019-05-13T13:37:24.507Z,59.2
2019-05-13T13:42:24.200Z,59.7
2019-05-13T13:47:24.571Z,60.4
2019-05-13T13:52:23.575Z,60.5
2019-05-13T13:57:26.544Z,60.9
2019-05-13T14:02:26.720Z,60.8
2019-05-13T14:07:38.389Z,62.1
2019-05-13T14:12:37.811Z,62.8
2019-05-13T14:17:41.551Z,62.9
2019-05-13T14:22:42.267Z,62.9
2019-05-13T14:27:42.250Z,64.3
2019-05-13T14:32:42.883Z,63.5
2019-05-13T14:37:42.707Z,63
2019-05-13T14:42:42.998Z,63
2019-05-13T14:47:42.644Z,63.5
2019-05-13T14:52:42.637Z,62.8
2019-05-13T14:57:42.201Z,63.5
2019-05-13T15:02:42.341Z,63
2019-05-13T15:07:42.477Z,63.1
2019-05-13T15:12:42.014Z,62.2
2019-05-13T15:17:42.865Z,62.1
2019-05-13T15:22:42.776Z,62
2019-05-13T15:27:42.683Z,62.4
2019-05-13T15:32:42.857Z,62.9
2019-05-13T15:37:42.679Z,62.4
2019-05-13T15:42:42.300Z,63.4
2019-05-13T15:47:41.721Z,64.4
2019-05-13T15:52:43.633Z,64.1
2019-05-13T15:57:43.152Z,64.7
2019-05-13T16:02:42.560Z,64.8
2019-05-13T16:07:42.323Z,65.5
2019-05-13T16:12:42.006Z,64.8
2019-05-13T16:17:45.206Z,65.7
2019-05-13T16:22:44.268Z,65.3
2019-05-13T16:27:43.993Z,66.4
2019-05-13T16:32:43.648Z,64.9
2019-05-13T16:37:43.433Z,65
2019-05-13T16:42:43.092Z,65.2
2019-05-13T16:48:03.610Z,65.3
2019-05-13T16:53:02.194Z,65.5
2019-05-13T16:58:02.233Z,65.1
2019-05-13T17:03:02.571Z,66.2
2019-05-13T17:08:02.411Z,66
2019-05-13T17:13:03.262Z,66.7
2019-05-13T17:18:15.155Z,67.2
2019-05-13T17:23:12.987Z,66.9
2019-05-13T17:28:13.723Z,68.2
2019-05-13T17:33:13.554Z,67.9
2019-05-13T17:38:13.685Z,68.6
2019-05-13T17:43:14.334Z,69.9
2019-05-13T17:48:29.598Z,69.5
2019-05-13T17:53:29.116Z,70
2019-05-13T17:58:28.058Z,70.6
2019-05-13T18:03:27.511Z,70.6
2019-05-13T18:08:27.428Z,70.8
2019-05-13T18:13:27.207Z,71.2
2019-05-13T18:18:46.852Z,71.3
2019-05-13T18:23:43.775Z,71.2
2019-05-13T18:28:43.260Z,71.2
2019-05-13T18:33:42.959Z,70.6
2019-05-13T18:38:42.758Z,70.6
2019-05-13T18:43:42.342Z,71.3
2019-05-13T18:48:59.209Z,70.9
2019-05-13T18:53:56.630Z,71.2
2019-05-13T18:58:56.066Z,71.3
2019-05-13T19:03:55.665Z,72.6
2019-05-13T19:08:55.430Z,72.7
2019-05-13T19:13:55.109Z,72.6
2019-05-13T19:18:54.950Z,73.1
2019-05-13T19:23:54.711Z,74.1
2019-05-13T19:28:54.347Z,74.2
2019-05-13T19:33:53.763Z,75.3
2019-05-13T19:38:53.029Z,77
2019-05-13T19:43:52.680Z,78.4
2019-05-13T19:48:52.542Z,77.2
2019-05-13T19:53:52.250Z,77.6
2019-05-13T19:58:51.962Z,77.5
2019-05-13T20:03:51.860Z,75.4
2019-05-13T20:08:52.040Z,75.9
2019-05-13T20:13:52.433Z,76.7
2019-05-13T20:18:52.053Z,76.7
2019-05-13T20:23:52.140Z,75.8
2019-05-13T20:28:51.877Z,75.8
2019-05-13T20:33:51.895Z,76.2
2019-05-13T20:38:51.949Z,76.7
2019-05-13T20:43:52.349Z,76.8
2019-05-13T20:48:52.191Z,78
2019-05-13T20:53:52.320Z,77.3
2019-05-13T20:58:51.930Z,77.5
2019-05-13T21:03:51.972Z,78.2
2019-05-13T21:08:52.414Z,79.6
2019-05-13T21:13:51.997Z,79.5
2019-05-13T21:18:51.780Z,79.4
2019-05-13T21:23:52.502Z,78.3
2019-05-13T21:28:52.531Z,79
2019-05-13T21:33:52.039Z,78.6
2019-05-13T21:38:51.595Z,77.9
2019-05-13T21:43:52.262Z,79.4
2019-05-13T21:48:52.264Z,80.5
2019-05-13T21:53:52.162Z,81.2
2019-05-13T21:58:52.458Z,80.2
2019-05-13T22:03:52.040Z,81.1
2019-05-13T22:08:52.130Z,81.4
2019-05-13T22:13:51.765Z,81.8
2019-05-13T22:18:52.732Z,80.9
2019-05-13T22:23:52.093Z,81.6
2019-05-13T22:28:51.696Z,79.6
2019-05-13T22:33:52.136Z,81
2019-05-13T22:38:52.008Z,81.2
2019-05-13T22:43:59.024Z,80.3
2019-05-13T22:48:57.464Z,81.4
2019-05-13T22:53:57.146Z,78.3
2019-05-13T22:58:57.058Z,77.5
2019-05-13T23:03:56.709Z,79.1
2019-05-13T23:08:56.086Z,81.1
2019-05-13T23:14:12.835Z,82.3
2019-05-13T23:19:11.354Z,81.8
2019-05-13T23:24:11.537Z,81.8
2019-05-13T23:29:11.029Z,80.2
2019-05-13T23:34:12.254Z,81
2019-05-13T23:39:11.970Z,82.1
2019-05-13T23:44:28.127Z,82.7
2019-05-13T23:49:25.288Z,82.9
2019-05-13T23:54:24.744Z,83.2
2019-05-13T23:59:24.416Z,83.4
